LSZB Airport Information

Runway Information
Runway 14 Length 4954 ft width 98 ft
Elevation 1668 ft Threshold 656 ft Heading 140
Runway 32 Length 4954 ft Width 98 ft
Elevation 1674 ft Threshold 360 ft Heading 320
Runway 14L Length 2133 ft width 98 ft
Elevation 0 ft Threshold 0 ft Heading 140
Runway 32R Length 2133 ft Width 98 ft
Elevation 0 ft Threshold 0 ft Heading 320
Runway 14R Length 2125 ft width 98 ft
Elevation 0 ft Threshold 0 ft Heading 140
Runway 32L Length 2125 ft Width 98 ft
Elevation 0 ft Threshold 0 ft Heading 320
Airport Frequencies
Type A/D Name APP/DEP Frequency 127.325 MHZ
Type ATIS Name ATIS Frequency 125.125 MHZ
Type MISC Name GLIDER Frequency 123.4 MHZ
Type OPS Name ALPAR Frequency 135.75 MHZ
Type TWR Name TWR Frequency 121.025 MHZ
Airport Navaids
Type NDB Name Bern Frequency 335 KHZ
Type NDB Name Muri Frequency 312 KHZ
Type NDB Name Schupberg Frequency 357 KHZ
Airport Weather Information & NOTAM
ADDS - METARS form results

(2112 UTC 12 December 2018)
Data provider http://aviationweather.gov/metar/data/
 
METAR text: LSZB 122050Z AUTO 12003KT 9999 BKN030 M02/M05 Q1017
Conditions at: LSZB (BERN/BELP , CH) observed 2050 UTC 12 December 2018
Temperature: -2.0°C (28°F)
Dewpoint: -5.0°C (23°F) [RH = 80%]
Pressure (altimeter): 30.03 inches Hg (1017.0 mb)
Winds: from the ESE (120 degrees) at 3 MPH (3 knots; 1.5 m/s)
Visibility: 6 or more miles (10+ km)
Ceiling: 3000 feet AGL
Clouds: broken clouds at 3000 feet AGL
Weather: no significant weather observed at this time

METAR text: LSZB 122020Z 09002KT 9999 BKN030 M03/M05 Q1017 NOSIG
Conditions at: LSZB (BERN/BELP , CH) observed 2020 UTC 12 December 2018
Temperature: -3.0°C (27°F)
Dewpoint: -5.0°C (23°F) [RH = 86%]
Pressure (altimeter): 30.03 inches Hg (1017.0 mb)
Winds: from the E (90 degrees) at 2 MPH (2 knots; 1.0 m/s)
Visibility: 6 or more miles (10+ km)
Ceiling: 3000 feet AGL
Clouds: broken clouds at 3000 feet AGL
Weather: no significant weather observed at this time

Forecast for: LSZB (BERN/BELP , CH)
Text: TAF LSZB 121425Z 1215/1224 VRB03KT 9999 SCT025
Forecast period: 1500 UTC 12 December 2018 to 0000 UTC 13 December 2018
Forecast type: FROM: standard forecast or significant change
Winds: variable direction winds at 3 MPH (3 knots; 1.5 m/s)
Visibility: 6 or more miles 10+ km)
Ceiling: at least 12,000 feet AGL
Clouds: scattered clouds at 2500 feet AGL
Weather: no significant weather forecast for this period